Time;durP1;ratioP1;P1;durP2;ratioP2;P2;SDS_P1;SDS_P2;PMS_P1;PMS_P2;Temp;Humidity;BMP_temperature;BMP_pressure;BME280_temperature;BME280_humidity;BME280_pressure;Samples;Min_cycle;Max_cycle;Signal;HPM_P1;HPM_P2
2021/08/15 00:02:21;;;;;;;6.10;3.10;;;;;;;27.05;47.42;100998.91;1740322;82;21013;-45
2021/08/15 00:04:47;;;;;;;4.40;3.02;;;;;;;27.05;47.49;100996.94;1741194;80;21013;-45
2021/08/15 00:07:13;;;;;;;5.30;3.52;;;;;;;27.06;47.58;101002.75;1737449;82;21662;-46
2021/08/15 00:09:40;;;;;;;6.65;3.40;;;;;;;27.06;47.67;101002.75;1740716;82;21084;-43
2021/08/15 00:12:07;;;;;;;4.45;3.08;;;;;;;27.06;47.74;101000.55;1736100;82;21078;-47
2021/08/15 00:14:34;;;;;;;5.15;3.22;;;;;;;27.07;47.81;100999.38;1736444;82;21043;-46
2021/08/15 00:17:00;;;;;;;5.15;3.20;;;;;;;27.07;47.88;100998.80;1728164;82;21869;-46
2021/08/15 00:19:26;;;;;;;5.45;3.17;;;;;;;27.06;47.96;100992.98;1745272;81;21068;-45
2021/08/15 00:21:53;;;;;;;4.95;3.02;;;;;;;27.07;47.99;100996.59;1738979;82;21110;-44
2021/08/15 00:24:19;;;;;;;4.00;3.42;;;;;;;27.07;47.99;100993.22;1737927;81;21053;-43
2021/08/15 00:26:45;;;;;;;5.78;3.70;;;;;;;27.07;48.07;100999.38;1742094;81;22265;-43
2021/08/15 00:29:11;;;;;;;4.53;3.20;;;;;;;27.07;48.15;100996.01;1742658;81;21046;-46
2021/08/15 00:31:42;;;;;;;4.87;3.27;;;;;;;27.07;48.18;100996.59;1738574;81;21025;-44
2021/08/15 00:34:08;;;;;;;6.70;3.83;;;;;;;27.07;48.20;100996.01;1747521;82;21240;-44
2021/08/15 00:36:34;;;;;;;7.10;3.20;;;;;;;27.08;48.27;101005.98;1752548;81;21060;-44
2021/08/15 00:39:00;;;;;;;5.17;3.45;;;;;;;27.07;48.32;100994.61;1749417;81;21052;-47
2021/08/15 00:41:27;;;;;;;4.30;3.05;;;;;;;27.08;48.37;100994.00;1736790;82;21436;-45
2021/08/15 00:43:53;;;;;;;6.25;3.47;;;;;;;27.08;48.46;100987.02;1749509;81;21073;-47
2021/08/15 00:46:19;;;;;;;8.18;3.60;;;;;;;27.08;48.51;100984.22;1752654;81;21215;-46
2021/08/15 00:48:45;;;;;;;6.78;4.08;;;;;;;27.07;48.54;100982.63;1750075;81;21440;-44
2021/08/15 00:51:11;;;;;;;4.97;3.33;;;;;;;27.08;48.63;100973.05;1745205;82;21072;-46
2021/08/15 00:53:39;;;;;;;5.72;3.58;;;;;;;27.08;48.71;100970.27;1744450;81;21064;-45
2021/08/15 00:56:07;;;;;;;5.45;3.33;;;;;;;27.08;48.77;100972.47;1736572;80;21004;-45
2021/08/15 00:58:33;;;;;;;5.35;3.65;;;;;;;27.07;48.82;100975.06;1736323;82;23117;-44
2021/08/15 01:01:03;;;;;;;4.85;3.50;;;;;;;27.08;48.89;100968.28;1747580;82;21049;-46
2021/08/15 01:03:30;;;;;;;6.15;3.15;;;;;;;27.09;48.96;100974.69;1741881;81;21749;-44
2021/08/15 01:05:58;;;;;;;7.00;3.77;;;;;;;27.08;48.97;100978.06;1748532;81;21058;-44
2021/08/15 01:08:25;;;;;;;5.92;3.83;;;;;;;27.08;49.03;100977.24;1715059;82;21028;-43
2021/08/15 01:10:52;;;;;;;5.12;3.65;;;;;;;27.08;49.10;100979.45;1746388;81;21067;-47
2021/08/15 01:13:18;;;;;;;5.50;3.50;;;;;;;27.07;49.16;100977.86;1741904;81;21088;-44
2021/08/15 01:15:44;;;;;;;5.47;3.37;;;;;;;27.08;49.23;100974.45;1748152;81;21520;-43
2021/08/15 01:18:22;;;;;;;4.50;3.58;;;;;;;27.08;49.28;100973.05;1719721;81;21582;-44
2021/08/15 01:20:57;;;;;;;6.20;4.10;;;;;;;27.07;49.32;100975.06;1742895;81;21006;-44
2021/08/15 01:23:24;;;;;;;5.12;3.90;;;;;;;27.08;49.36;100965.49;1742934;81;21184;-44
2021/08/15 01:25:50;;;;;;;5.03;3.45;;;;;;;27.07;49.41;100970.88;1739924;82;21030;-46
2021/08/15 01:28:18;;;;;;;5.60;3.77;;;;;;;27.07;49.44;100969.48;1724449;82;21061;-45
2021/08/15 01:30:45;;;;;;;5.55;3.47;;;;;;;27.07;49.51;100970.06;1732725;81;21083;-45
2021/08/15 01:33:11;;;;;;;7.33;4.20;;;;;;;27.07;49.57;100964.47;1736011;81;21049;-47
2021/08/15 01:35:38;;;;;;;6.35;3.80;;;;;;;27.07;49.62;100965.87;1742667;81;21116;-44
2021/08/15 01:38:04;;;;;;;5.58;3.83;;;;;;;27.07;49.66;100963.08;1736660;82;21100;-47
2021/08/15 01:40:30;;;;;;;5.47;3.90;;;;;;;27.07;49.71;100966.69;1742365;82;20915;-44
2021/08/15 01:42:56;;;;;;;5.47;3.52;;;;;;;27.07;49.76;100966.69;1738729;82;21444;-43
2021/08/15 01:45:22;;;;;;;5.15;3.67;;;;;;;27.07;49.80;100970.06;1739207;81;21042;-47
2021/08/15 01:47:48;;;;;;;4.83;3.75;;;;;;;27.07;49.84;100967.27;1735176;82;21323;-44
2021/08/15 01:50:14;;;;;;;5.17;3.65;;;;;;;27.07;49.89;100968.08;1727126;82;21100;-45
2021/08/15 01:52:48;;;;;;;4.03;3.47;;;;;;;27.07;49.93;100966.69;1745577;81;21085;-44
2021/08/15 01:55:15;;;;;;;7.80;3.83;;;;;;;27.07;49.96;100967.27;1743580;81;21098;-45
2021/08/15 01:57:41;;;;;;;5.92;3.62;;;;;;;27.06;50.00;100965.05;1737400;82;21581;-42
2021/08/15 02:00:09;;;;;;;6.95;4.17;;;;;;;27.07;50.02;100973.66;1736825;82;23270;-46
2021/08/15 02:02:43;;;;;;;4.72;3.33;;;;;;;27.06;50.08;100968.42;1730901;81;21035;-48
2021/08/15 02:05:15;;;;;;;4.65;3.85;;;;;;;27.04;50.13;100968.77;1706808;84;21024;-42
2021/08/15 02:07:39;;;;;;;5.95;4.12;;;;;;;27.06;50.15;100967.84;1705854;83;21502;-45
2021/08/15 02:10:06;;;;;;;5.55;3.77;;;;;;;27.05;50.21;100966.80;1742950;81;21039;-45
2021/08/15 02:12:33;;;;;;;4.83;3.90;;;;;;;27.06;50.25;100968.42;1742865;82;21132;-44
2021/08/15 02:14:59;;;;;;;5.53;3.72;;;;;;;27.06;50.29;100972.03;1742152;80;21545;-42
2021/08/15 02:17:25;;;;;;;6.08;3.65;;;;;;;27.05;50.33;100969.01;1734407;82;21030;-45
2021/08/15 02:19:51;;;;;;;5.58;4.12;;;;;;;27.05;50.32;100966.22;1753020;80;21474;-43
2021/08/15 02:22:17;;;;;;;5.33;3.90;;;;;;;27.05;50.32;100962.61;1746791;81;21257;-45
2021/08/15 02:24:44;;;;;;;6.65;3.83;;;;;;;27.05;50.33;100966.80;1754963;80;21191;-44
2021/08/15 02:27:10;;;;;;;5.58;3.92;;;;;;;27.05;50.35;100967.61;1745250;80;21682;-49
2021/08/15 02:29:36;;;;;;;6.35;4.12;;;;;;;27.05;50.35;100969.59;1747694;81;20970;-45
2021/08/15 02:32:03;;;;;;;5.75;3.58;;;;;;;27.05;50.38;100966.80;1739082;81;21026;-45
2021/08/15 02:34:29;;;;;;;6.22;4.00;;;;;;;27.05;50.42;100967.61;1748448;81;21093;-43
2021/08/15 02:36:55;;;;;;;6.28;4.15;;;;;;;27.06;50.47;100967.03;1756224;81;21064;-44
2021/08/15 02:39:21;;;;;;;5.83;3.65;;;;;;;27.05;50.51;100968.19;1751356;81;21785;-43
2021/08/15 02:41:47;;;;;;;6.45;4.17;;;;;;;27.05;50.53;100969.59;1748035;81;21883;-44
2021/08/15 02:44:13;;;;;;;4.40;3.87;;;;;;;27.05;50.48;100968.19;1755686;81;20985;-48
2021/08/15 02:46:51;;;;;;;4.95;3.77;;;;;;;27.04;50.48;100961.79;1737275;81;21041;-45
2021/08/15 02:49:17;;;;;;;7.87;4.17;;;;;;;27.04;50.55;100961.79;1753255;81;21198;-44
2021/08/15 02:51:43;;;;;;;5.58;4.05;;;;;;;27.04;50.62;100963.19;1753103;81;21023;-43
2021/08/15 02:54:10;;;;;;;6.15;4.15;;;;;;;27.05;50.68;100965.40;1747879;81;21700;-43
2021/08/15 02:56:36;;;;;;;6.28;4.45;;;;;;;27.04;50.76;100960.98;1741865;81;21693;-46
2021/08/15 02:59:02;;;;;;;5.12;4.15;;;;;;;27.02;50.76;100961.36;1748892;81;21001;-46
2021/08/15 03:01:28;;;;;;;5.78;4.22;;;;;;;27.04;50.78;100967.96;1751372;81;21155;-44
2021/08/15 03:03:54;;;;;;;5.10;3.77;;;;;;;27.03;50.80;100975.52;1756547;81;21057;-44
2021/08/15 03:06:20;;;;;;;6.37;4.00;;;;;;;27.03;50.81;100974.12;1751982;80;20862;-45
2021/08/15 03:08:46;;;;;;;6.35;4.10;;;;;;;27.02;50.82;100972.52;1741286;81;21533;-43
2021/08/15 03:11:12;;;;;;;7.97;4.67;;;;;;;27.02;50.85;100966.94;1756274;81;20984;-46
2021/08/15 03:13:38;;;;;;;6.40;3.90;;;;;;;27.03;50.86;100972.73;1751802;81;21078;-43
2021/08/15 03:16:05;;;;;;;6.58;4.47;;;;;;;27.02;50.87;100968.34;1750572;81;20989;-43
2021/08/15 03:18:31;;;;;;;5.75;4.22;;;;;;;27.01;50.88;100966.70;1750415;81;21042;-42
2021/08/15 03:20:57;;;;;;;6.28;4.15;;;;;;;27.01;50.88;100968.10;1738462;81;21128;-42
2021/08/15 03:23:23;;;;;;;5.78;4.33;;;;;;;27.01;50.90;100969.50;1740118;82;21001;-46
2021/08/15 03:25:49;;;;;;;5.22;4.45;;;;;;;27.01;50.93;100967.28;1736898;82;21302;-44
2021/08/15 03:28:15;;;;;;;6.70;4.62;;;;;;;27.00;50.94;100973.45;1738458;82;21421;-43
2021/08/15 03:30:41;;;;;;;6.65;4.45;;;;;;;27.00;50.95;100972.05;1738039;81;21044;-43
2021/08/15 03:33:07;;;;;;;6.17;4.28;;;;;;;27.00;51.00;100972.05;1752134;80;21800;-46
2021/08/15 03:35:33;;;;;;;6.90;4.45;;;;;;;27.01;51.01;100971.48;1735553;81;21050;-45
2021/08/15 03:37:59;;;;;;;4.60;4.10;;;;;;;27.00;51.03;100970.66;1732497;81;22175;-45
2021/08/15 03:40:26;;;;;;;5.97;4.42;;;;;;;27.00;51.04;100969.84;1739039;81;21069;-44
2021/08/15 03:42:52;;;;;;;5.60;4.37;;;;;;;27.00;51.06;100969.84;1749763;80;21044;-46
2021/08/15 03:45:18;;;;;;;5.80;4.37;;;;;;;27.00;51.07;100969.27;1740867;81;21116;-45
2021/08/15 03:47:44;;;;;;;7.22;4.78;;;;;;;27.00;51.09;100972.64;1737028;81;21061;-46
2021/08/15 03:50:11;;;;;;;5.12;4.25;;;;;;;27.00;51.12;100971.24;1726561;79;21498;-43
2021/08/15 03:52:39;;;;;;;5.67;4.37;;;;;;;26.99;51.15;100971.82;1727197;82;21006;-44
2021/08/15 03:55:10;;;;;;;5.85;4.35;;;;;;;26.99;51.21;100973.22;1700650;84;21114;-44
2021/08/15 03:57:35;;;;;;;6.65;4.47;;;;;;;26.99;51.20;100970.42;1736663;81;21097;-44
2021/08/15 04:00:02;;;;;;;6.30;4.15;;;;;;;27.00;51.25;100975.43;1724692;82;21563;-44
2021/08/15 04:02:29;;;;;;;5.35;4.37;;;;;;;26.98;51.25;100968.01;1697769;83;21891;-46
2021/08/15 04:04:55;;;;;;;5.65;4.28;;;;;;;26.99;51.30;100973.22;1739314;81;21046;-46
2021/08/15 04:07:21;;;;;;;6.05;4.53;;;;;;;26.98;51.33;100970.22;1743501;81;21644;-42
2021/08/15 04:09:47;;;;;;;6.70;4.35;;;;;;;26.98;51.34;100970.22;1740134;82;21002;-42
2021/08/15 04:12:13;;;;;;;5.53;4.10;;;;;;;26.98;51.39;100966.03;1739332;80;21097;-43
2021/08/15 04:14:39;;;;;;;6.22;4.20;;;;;;;26.99;51.42;100969.03;1744049;80;21322;-46
2021/08/15 04:17:06;;;;;;;6.15;4.50;;;;;;;26.98;51.43;100969.41;1744519;80;21616;-46
2021/08/15 04:19:32;;;;;;;6.60;4.42;;;;;;;26.98;51.47;100970.22;1741685;81;21055;-43
2021/08/15 04:21:58;;;;;;;6.12;4.60;;;;;;;26.98;51.47;100972.20;1730878;82;21003;-43
2021/08/15 04:24:24;;;;;;;6.40;5.03;;;;;;;26.99;51.50;100976.63;1741324;80;20946;-45
2021/08/15 04:26:50;;;;;;;5.42;4.05;;;;;;;26.98;51.52;100974.41;1740830;80;21962;-42
2021/08/15 04:29:17;;;;;;;6.97;5.70;;;;;;;26.98;51.54;100970.80;1739204;82;21054;-43
2021/08/15 04:31:43;;;;;;;10.63;6.47;;;;;;;26.98;51.42;100979.99;1736506;81;21076;-45
2021/08/15 04:34:10;;;;;;;9.90;6.78;;;;;;;26.95;51.15;100976.50;1733819;82;21060;-44
2021/08/15 04:36:36;;;;;;;11.08;6.97;;;;;;;26.95;50.86;100978.47;1728379;80;21602;-43
2021/08/15 04:39:03;;;;;;;8.45;6.10;;;;;;;26.92;50.61;100980.02;1743566;81;21062;-43
2021/08/15 04:41:29;;;;;;;10.20;6.50;;;;;;;26.89;50.38;100979.34;1738191;82;21220;-44
2021/08/15 04:43:56;;;;;;;8.33;6.60;;;;;;;26.88;50.19;100980.50;1729718;81;21034;-46
2021/08/15 04:46:22;;;;;;;8.88;6.33;;;;;;;26.85;49.99;100977.03;1737948;82;21090;-43
2021/08/15 04:48:48;;;;;;;9.65;5.78;;;;;;;26.84;49.82;100975.37;1722798;82;21071;-42
2021/08/15 04:51:14;;;;;;;9.18;6.28;;;;;;;26.85;49.64;100974.24;1734627;82;22165;-45
2021/08/15 04:53:40;;;;;;;12.47;6.50;;;;;;;26.82;49.49;100970.13;1734655;80;21017;-43
2021/08/15 04:56:06;;;;;;;9.73;6.75;;;;;;;26.81;49.36;100974.70;1740808;82;21030;-45
2021/08/15 04:58:32;;;;;;;10.03;6.60;;;;;;;26.80;49.21;100972.48;1739989;82;21926;-44
2021/08/15 05:00:59;;;;;;;9.13;6.47;;;;;;;26.80;49.10;100971.67;1738107;82;21021;-44
2021/08/15 05:03:25;;;;;;;9.78;7.20;;;;;;;26.80;48.99;100975.85;1727206;82;21072;-44
2021/08/15 05:05:51;;;;;;;10.75;7.35;;;;;;;26.78;48.89;100969.80;1740445;80;22151;-44
2021/08/15 05:08:17;;;;;;;10.35;6.78;;;;;;;26.78;48.82;100968.41;1735952;80;21494;-42
2021/08/15 05:10:43;;;;;;;12.37;7.42;;;;;;;26.77;48.74;100970.99;1734380;82;21823;-43
2021/08/15 05:13:11;;;;;;;12.05;6.75;;;;;;;26.77;48.68;100971.81;1731510;82;21032;-42
2021/08/15 05:15:37;;;;;;;9.93;7.08;;;;;;;26.77;48.62;100976.58;1744084;80;21189;-44
2021/08/15 05:18:03;;;;;;;10.98;7.28;;;;;;;26.76;48.53;100977.16;1741750;81;21025;-45
2021/08/15 05:20:30;;;;;;;12.82;7.55;;;;;;;26.76;48.46;100974.94;1731686;82;21451;-43
2021/08/15 05:22:59;;;;;;;12.63;7.55;;;;;;;26.77;48.43;100975.18;1740643;82;21026;-42
2021/08/15 05:25:25;;;;;;;12.47;8.05;;;;;;;26.77;48.34;100966.80;1739927;80;21050;-46
2021/08/15 05:27:52;;;;;;;10.48;7.22;;;;;;;26.76;48.31;100973.55;1742666;82;21088;-44
2021/08/15 05:30:18;;;;;;;10.72;8.78;;;;;;;26.77;48.25;100970.99;1736714;80;21153;-43
2021/08/15 05:32:45;;;;;;;10.95;7.85;;;;;;;26.76;48.23;100967.38;1734990;82;21060;-47
2021/08/15 05:35:11;;;;;;;13.68;8.90;;;;;;;26.77;48.19;100973.78;1735653;81;21034;-42
2021/08/15 05:37:40;;;;;;;12.33;7.85;;;;;;;26.77;48.14;100980.19;1744399;80;21049;-47
2021/08/15 05:40:08;;;;;;;13.58;9.28;;;;;;;26.78;48.09;100978.98;1744066;80;21630;-45
2021/08/15 05:42:34;;;;;;;13.58;8.70;;;;;;;26.77;48.05;100974.59;1704198;83;21005;-42
2021/08/15 05:45:00;;;;;;;11.93;8.58;;;;;;;26.78;48.00;100976.78;1699156;84;21019;-44
2021/08/15 05:47:26;;;;;;;13.05;8.75;;;;;;;26.77;47.97;100975.18;1742418;81;21583;-44
2021/08/15 05:49:52;;;;;;;12.15;8.23;;;;;;;26.77;47.92;100978.78;1733218;81;21004;-44
2021/08/15 05:52:19;;;;;;;15.18;9.00;;;;;;;26.77;47.92;100974.59;1732125;82;21148;-43
2021/08/15 05:54:45;;;;;;;15.15;9.45;;;;;;;26.79;47.90;100978.41;1733769;81;21517;-44
2021/08/15 05:57:15;;;;;;;11.70;8.63;;;;;;;26.78;47.85;100970.62;1730545;81;21319;-47
2021/08/15 05:59:41;;;;;;;14.65;8.90;;;;;;;26.79;47.78;100979.80;1736433;82;21056;-45
2021/08/15 06:02:07;;;;;;;14.13;9.70;;;;;;;26.78;47.73;100980.97;1739348;82;21097;-42
2021/08/15 06:04:33;;;;;;;12.78;8.38;;;;;;;26.77;47.69;100971.81;1734268;81;21030;-43
2021/08/15 06:06:59;;;;;;;11.73;8.45;;;;;;;26.78;47.61;100971.20;1734005;81;21145;-43
2021/08/15 06:09:26;;;;;;;12.93;8.60;;;;;;;26.77;47.55;100972.39;1719782;80;21106;-43
2021/08/15 06:11:52;;;;;;;12.07;8.05;;;;;;;26.77;47.48;100966.23;1739367;81;21476;-43
2021/08/15 06:14:18;;;;;;;11.48;8.18;;;;;;;26.77;47.43;100968.20;1736153;81;21025;-45
2021/08/15 06:16:44;;;;;;;14.75;8.78;;;;;;;26.77;47.32;100966.23;1704487;82;21279;-42
2021/08/15 06:19:12;;;;;;;10.10;8.45;;;;;;;26.77;47.27;100973.20;1735314;82;21623;-45
2021/08/15 06:21:38;;;;;;;11.85;8.00;;;;;;;26.77;47.22;100969.02;1743784;80;21531;-43
2021/08/15 06:24:05;;;;;;;11.85;7.97;;;;;;;26.78;47.19;100968.41;1737499;81;20987;-44
2021/08/15 06:26:32;;;;;;;10.80;7.62;;;;;;;26.78;47.26;100965.03;1754196;81;21017;-43
2021/08/15 06:28:58;;;;;;;13.85;7.95;;;;;;;26.79;47.29;100968.06;1749060;80;21562;-42
2021/08/15 06:31:24;;;;;;;11.38;8.08;;;;;;;26.80;47.37;100962.71;1742082;81;21096;-43
2021/08/15 06:33:51;;;;;;;12.37;7.75;;;;;;;26.82;47.29;100959.55;1713706;83;21114;-43
2021/08/15 06:36:17;;;;;;;12.80;7.78;;;;;;;26.81;47.21;100957.95;1711777;83;21386;-41
2021/08/15 06:38:43;;;;;;;9.28;7.62;;;;;;;26.83;47.12;100961.17;1716634;82;21007;-44
2021/08/15 06:41:10;;;;;;;30.62;14.35;;;;;;;26.83;47.10;100959.20;1719549;82;22016;-42
2021/08/15 06:43:36;;;;;;;12.33;7.30;;;;;;;26.82;47.14;100954.78;1688218;84;21281;-44
2021/08/15 06:46:02;;;;;;;11.20;7.37;;;;;;;26.85;47.22;100956.67;1693139;84;21072;-44
2021/08/15 06:48:28;;;;;;;10.20;6.17;;;;;;;26.85;47.20;100955.28;1697348;84;21149;-44
2021/08/15 06:50:58;;;;;;;10.65;7.40;;;;;;;26.85;47.20;100963.08;1691966;83;21012;-47
2021/08/15 06:53:23;;;;;;;12.35;6.95;;;;;;;26.86;47.18;100960.52;1694689;84;21545;-43
2021/08/15 06:55:49;;;;;;;12.37;7.72;;;;;;;26.86;47.16;100959.13;1690499;83;21050;-43
2021/08/15 06:58:16;;;;;;;9.10;6.47;;;;;;;26.86;47.09;100966.10;1696342;84;21774;-44
2021/08/15 07:00:43;;;;;;;9.73;6.90;;;;;;;26.86;46.99;100967.50;1691252;84;21061;-45
2021/08/15 07:03:10;;;;;;;11.50;6.90;;;;;;;26.86;46.92;100966.10;1696932;84;21486;-45
2021/08/15 07:05:36;;;;;;;8.55;6.53;;;;;;;26.88;46.88;100965.72;1695820;84;23409;-47
2021/08/15 07:08:03;;;;;;;10.23;6.70;;;;;;;26.89;46.81;100970.14;1693720;83;21067;-43
2021/08/15 07:10:29;;;;;;;8.53;6.40;;;;;;;26.88;46.76;100965.14;1695248;84;21084;-42
2021/08/15 07:12:55;;;;;;;11.08;6.60;;;;;;;26.88;46.70;100972.13;1694986;83;21003;-45
2021/08/15 07:15:22;;;;;;;9.55;7.20;;;;;;;26.88;46.68;100965.14;1693032;84;21091;-45
2021/08/15 07:17:48;;;;;;;11.15;7.37;;;;;;;26.89;46.71;100963.98;1694448;84;21346;-45
2021/08/15 07:20:15;;;;;;;63.95;31.68;;;;;;;26.90;46.71;100969.80;1694203;83;21092;-47
2021/08/15 07:22:41;;;;;;;24.98;13.55;;;;;;;26.91;46.71;100971.98;1690103;83;20983;-47
2021/08/15 07:25:09;;;;;;;27.52;13.25;;;;;;;26.92;46.88;100966.05;1688805;83;21021;-42
2021/08/15 07:27:35;;;;;;;281.77;59.58;;;;;;;26.93;46.96;100961.28;1688732;84;21009;-40
2021/08/15 07:30:02;;;;;;;36.63;15.15;;;;;;;26.94;47.07;100965.70;1688619;83;21811;-45
2021/08/15 07:32:28;;;;;;;30.17;11.10;;;;;;;26.95;47.25;100969.52;1687042;84;21111;-42
2021/08/15 07:34:54;;;;;;;29.67;11.63;;;;;;;26.95;47.39;100960.33;1732792;80;21586;-45
2021/08/15 07:37:20;;;;;;;38.20;12.88;;;;;;;26.96;47.49;100960.56;1732948;81;21096;-44
2021/08/15 07:39:46;;;;;;;39.38;13.20;;;;;;;26.97;47.57;100959.39;1737373;80;21048;-43
2021/08/15 07:42:12;;;;;;;39.33;12.95;;;;;;;26.95;47.67;100954.16;1728720;80;21472;-44
2021/08/15 07:44:38;;;;;;;37.20;12.35;;;;;;;26.96;47.71;100954.39;1739805;80;20955;-42
2021/08/15 07:47:05;;;;;;;32.50;11.22;;;;;;;26.97;47.76;100963.59;1734549;82;21023;-44
2021/08/15 07:49:31;;;;;;;34.40;12.18;;;;;;;26.97;47.80;100956.03;1733433;80;21496;-44
2021/08/15 07:51:57;;;;;;;33.80;12.07;;;;;;;26.96;47.82;100957.19;1729003;81;21068;-42
2021/08/15 07:54:23;;;;;;;38.30;12.30;;;;;;;26.96;47.80;100959.98;1731102;82;21348;-45
2021/08/15 07:56:50;;;;;;;29.42;10.60;;;;;;;26.96;47.81;100959.98;1733651;81;21274;-44
2021/08/15 07:59:16;;;;;;;27.35;10.98;;;;;;;26.97;47.80;100961.61;1728598;80;21086;-44
2021/08/15 08:01:43;;;;;;;25.52;10.13;;;;;;;26.97;47.77;100958.00;1731896;80;20884;-43
2021/08/15 08:04:09;;;;;;;25.57;10.63;;;;;;;26.96;47.81;100958.58;1736135;80;21007;-45
2021/08/15 08:06:36;;;;;;;28.95;10.48;;;;;;;26.97;47.82;100962.19;1733036;81;21138;-42
2021/08/15 08:09:02;;;;;;;20.95;9.75;;;;;;;26.97;47.86;100954.63;1728966;81;21462;-41
2021/08/15 08:11:28;;;;;;;24.02;10.15;;;;;;;26.96;47.88;100945.20;1730205;81;21054;-44
2021/08/15 08:13:54;;;;;;;21.73;8.95;;;;;;;26.96;47.89;100953.00;1729104;81;21124;-41
2021/08/15 08:16:20;;;;;;;24.12;9.05;;;;;;;26.97;47.90;100951.02;1726202;80;21535;-43
2021/08/15 08:18:49;;;;;;;23.50;9.30;;;;;;;26.97;47.90;100948.23;1739123;82;21083;-43
2021/08/15 08:21:14;;;;;;;23.55;9.33;;;;;;;26.95;47.91;100945.78;1735081;80;21518;-41
2021/08/15 08:23:40;;;;;;;20.72;8.70;;;;;;;26.97;47.92;100939.85;1731751;80;20931;-42
2021/08/15 08:26:07;;;;;;;19.70;9.43;;;;;;;26.96;47.93;100939.62;1733741;80;21039;-43
2021/08/15 08:28:33;;;;;;;19.17;8.98;;;;;;;26.96;47.95;100937.64;1734990;80;21659;-44
2021/08/15 08:30:59;;;;;;;18.50;9.03;;;;;;;26.96;47.94;100934.84;1733584;80;21323;-44
2021/08/15 08:33:25;;;;;;;15.20;8.10;;;;;;;26.97;47.95;100934.27;1734165;80;20855;-42
2021/08/15 08:35:52;;;;;;;17.07;8.18;;;;;;;26.96;47.95;100933.45;1733889;81;20931;-41
2021/08/15 08:38:18;;;;;;;14.50;8.03;;;;;;;26.96;47.93;100930.66;1734085;80;21441;-42
2021/08/15 08:40:46;;;;;;;13.55;7.28;;;;;;;26.96;47.95;100929.27;1730096;80;21510;-42
2021/08/15 08:43:13;;;;;;;17.30;7.03;;;;;;;26.96;47.95;100921.47;1743527;80;21081;-47
2021/08/15 08:45:41;;;;;;;16.90;8.03;;;;;;;26.96;47.93;100922.28;1732705;80;21134;-42
2021/08/15 08:48:07;;;;;;;13.10;7.42;;;;;;;26.97;47.89;100925.89;1730511;81;21395;-45
2021/08/15 08:50:34;;;;;;;15.18;7.53;;;;;;;26.97;47.84;100924.50;1728144;82;21333;-44
2021/08/15 08:53:00;;;;;;;12.40;7.35;;;;;;;26.96;47.81;100920.89;1696676;82;21035;-41
2021/08/15 08:55:26;;;;;;;17.15;8.38;;;;;;;26.97;47.76;100920.30;1721835;80;21543;-43
2021/08/15 08:57:52;;;;;;;11.43;6.37;;;;;;;26.98;47.77;100921.94;1731415;81;20892;-43
2021/08/15 09:00:18;;;;;;;17.07;6.70;;;;;;;26.97;47.79;100918.91;1735905;80;21069;-46
2021/08/15 09:02:45;;;;;;;16.90;7.30;;;;;;;26.97;47.85;100914.14;1732633;81;21074;-43
2021/08/15 09:05:11;;;;;;;143.50;36.53;;;;;;;26.99;47.92;100922.95;1730105;81;21519;-45
2021/08/15 09:07:39;;;;;;;53.02;16.48;;;;;;;26.99;47.97;100920.77;1738016;81;21502;-43
2021/08/15 09:10:10;;;;;;;22.13;8.80;;;;;;;26.99;48.01;100917.98;1733476;82;21080;-43
2021/08/15 09:12:48;;;;;;;15.98;7.72;;;;;;;27.00;48.05;100910.63;1726658;82;21499;-46
2021/08/15 09:15:19;;;;;;;16.73;8.28;;;;;;;26.99;48.06;100906.20;1728293;81;21586;-44
2021/08/15 09:17:46;;;;;;;11.33;7.58;;;;;;;27.00;48.07;100906.44;1731854;81;21092;-43
2021/08/15 09:20:15;;;;;;;10.90;6.80;;;;;;;27.01;48.06;100898.88;1732830;81;22154;-41
2021/08/15 09:22:42;;;;;;;9.03;6.70;;;;;;;27.01;48.00;100900.27;1748457;81;21100;-45
2021/08/15 09:25:18;;;;;;;8.30;6.22;;;;;;;27.01;47.87;100898.29;1715480;82;21148;-42
2021/08/15 09:27:51;;;;;;;7.80;5.53;;;;;;;27.02;47.72;100899.92;1734793;81;21021;-42
2021/08/15 09:30:32;;;;;;;9.08;5.75;;;;;;;27.03;47.57;100896.55;1740197;81;21056;-43
2021/08/15 09:33:06;;;;;;;;;;;;;;;27.02;47.35;100887.35;1748442;81;21921;-42
2021/08/15 09:35:38;;;;;;;8.03;5.78;;;;;;;27.01;47.12;100885.72;1740255;80;20288;-44
2021/08/15 09:38:16;;;;;;;9.45;5.80;;;;;;;26.98;46.89;100883.66;1740463;81;21428;-44
2021/08/15 09:40:51;;;;;;;7.50;4.85;;;;;;;26.95;46.52;100878.77;1745231;81;21057;-42
2021/08/15 09:43:23;;;;;;;8.15;5.85;;;;;;;26.91;46.11;100876.47;1723374;82;21092;-43
2021/08/15 09:45:56;;;;;;;8.70;5.15;;;;;;;26.87;45.79;100874.17;1748295;81;21083;-44
2021/08/15 09:48:30;;;;;;;8.53;5.30;;;;;;;26.82;45.50;100871.03;1738589;80;21515;-41
2021/08/15 09:51:19;;;;;;;30.70;13.65;;;;;;;26.80;45.27;100865.59;1747195;81;21049;-42
2021/08/15 09:53:56;;;;;;;14.40;7.85;;;;;;;26.76;45.05;100860.50;1736936;81;21065;-44
2021/08/15 09:56:40;;;;;;;9.90;6.60;;;;;;;26.73;44.82;100855.64;1744142;80;21015;-41
2021/08/15 09:59:18;;;;;;;30.55;12.35;;;;;;;26.70;44.69;100858.55;1739057;81;22119;-40
2021/08/15 10:01:53;;;;;;;72.45;27.22;;;;;;;26.67;44.56;100852.88;1742690;81;21385;-41
2021/08/15 10:04:22;;;;;;;76.67;25.80;;;;;;;26.63;44.45;100851.97;1740831;81;21030;-42
2021/08/15 10:06:51;;;;;;;18.40;8.48;;;;;;;26.62;44.36;100853.95;1734621;80;21129;-42
2021/08/15 10:09:20;;;;;;;9.85;7.28;;;;;;;26.60;44.31;100848.51;1737868;80;21568;-42
2021/08/15 10:11:47;;;;;;;8.00;6.53;;;;;;;26.58;44.29;100839.09;1739942;81;21077;-43
2021/08/15 10:14:13;;;;;;;8.63;6.85;;;;;;;26.59;44.29;100833.74;1746382;81;21668;-45
2021/08/15 10:16:57;;;;;;;8.75;6.70;;;;;;;26.58;44.29;100827.11;1743059;80;21027;-42
2021/08/15 10:19:39;;;;;;;6.78;5.65;;;;;;;26.57;44.29;100827.69;1710558;82;21130;-42
2021/08/15 10:22:06;;;;;;;15.50;7.67;;;;;;;26.55;44.25;100820.86;1669922;83;21091;-42
2021/08/15 10:24:47;;;;;;;21.68;9.40;;;;;;;26.54;44.25;100827.02;1704280;83;21681;-42
2021/08/15 10:27:43;;;;;;;28.85;12.15;;;;;;;26.53;44.27;100812.84;1730395;80;21049;-41
2021/08/15 10:30:25;;;;;;;19.32;11.57;;;;;;;26.53;44.32;100808.65;1725304;81;21073;-44
2021/08/15 10:33:06;;;;;;;24.15;10.55;;;;;;;26.53;44.38;100807.84;1727623;81;21531;-42
2021/08/15 10:35:37;;;;;;;22.80;10.35;;;;;;;26.52;44.47;100808.41;1735465;81;21086;-42
2021/08/15 10:38:11;;;;;;;26.80;10.63;;;;;;;26.53;44.52;100807.84;1734007;80;21120;-43
2021/08/15 10:40:47;;;;;;;26.17;12.53;;;;;;;26.51;44.55;100801.23;1725199;81;21055;-41
2021/08/15 10:43:25;;;;;;;23.35;10.13;;;;;;;26.52;44.59;100797.86;1726813;80;21082;-43
2021/08/15 10:46:22;;;;;;;42.60;16.55;;;;;;;26.52;44.60;100792.28;1731861;80;21525;-45
2021/08/15 10:49:02;;;;;;;41.70;16.32;;;;;;;26.53;44.59;100796.67;1738715;80;21038;-43
2021/08/15 10:51:51;;;;;;;63.85;23.45;;;;;;;26.52;44.59;100785.31;1727847;80;21086;-45
2021/08/15 10:54:33;;;;;;;79.65;30.20;;;;;;;26.51;44.58;100777.52;1721564;82;21058;-43
2021/08/15 10:57:04;;;;;;;43.92;18.73;;;;;;;26.51;44.56;100777.52;1729564;80;21068;-44
2021/08/15 10:59:38;;;;;;;41.77;15.23;;;;;;;26.50;44.59;100774.50;1722369;80;21028;-43
2021/08/15 11:02:11;;;;;;;52.38;20.48;;;;;;;26.50;44.55;100771.70;1731629;80;21094;-45
2021/08/15 11:04:38;;;;;;;27.80;12.53;;;;;;;26.51;44.52;100771.94;1727965;81;22005;-44
2021/08/15 11:07:04;;;;;;;18.25;10.35;;;;;;;26.51;44.53;100769.16;1729865;80;21589;-43
2021/08/15 11:09:57;;;;;;;23.07;11.50;;;;;;;26.52;44.51;100767.17;1730052;81;32770;-43
2021/08/15 11:12:30;;;;;;;34.92;15.43;;;;;;;26.54;44.47;100764.82;1733192;80;21059;-42
2021/08/15 11:15:06;;;;;;;220.63;69.92;;;;;;;26.53;44.46;100765.41;1729304;80;21094;-42
2021/08/15 11:17:34;;;;;;;25.50;12.25;;;;;;;26.54;44.43;100766.22;1734247;80;22010;-42
2021/08/15 11:20:33;;;;;;;58.48;23.42;;;;;;;26.53;44.39;100760.41;1731718;80;21065;-42
2021/08/15 11:23:18;;;;;;;88.20;31.00;;;;;;;26.53;44.35;100768.19;1739559;80;21065;-43
2021/08/15 11:25:45;;;;;;;19.45;10.20;;;;;;;26.53;44.33;100762.61;1727049;80;21005;-45